Time;durP1;ratioP1;P1;durP2;ratioP2;P2;SDS_P1;SDS_P2;PMS_P1;PMS_P2;Temp;Humidity;BMP_temperature;BMP_pressure;BME280_temperature;BME280_humidity;BME280_pressure;Samples;Min_cycle;Max_cycle;Signal;HPM_P1;HPM_P2
2021/03/02 00:00:04;;;;;;;102.83;34.80;;;;;;;;;;5022910;28;20205;-69
2021/03/02 00:02:30;;;;;;;104.13;32.33;;;;;;;;;;5033200;28;20301;-69
2021/03/02 00:04:56;;;;;;;103.73;32.17;;;;;;;;;;5031256;28;20698;-68
2021/03/02 00:07:22;;;;;;;106.13;32.17;;;;;;;;;;5025003;28;20197;-68
2021/03/02 00:09:47;;;;;;;112.70;32.53;;;;;;;;;;5043871;28;20687;-69
2021/03/02 00:12:14;;;;;;;108.03;33.53;;;;;;;;;;5028324;28;20227;-69
2021/03/02 00:14:39;;;;;;;107.77;32.43;;;;;;;;;;5029644;28;20194;-69
2021/03/02 00:17:30;;;;;;;95.93;31.87;;;;;;;;;;5024455;28;20193;-68
2021/03/02 00:20:07;;;;;;;104.90;31.90;;;;;;;;;;5030853;28;20205;-67
2021/03/02 00:22:58;;;;;;;101.40;32.57;;;;;;;;;;5022706;28;20556;-68
2021/03/02 00:25:35;;;;;;;103.13;33.47;;;;;;;;;;5031987;28;20276;-67
2021/03/02 00:28:04;;;;;;;101.13;30.97;;;;;;;;;;5036424;28;20185;-68
2021/03/02 00:30:29;;;;;;;110.23;33.87;;;;;;;;;;5032538;28;20557;-68
2021/03/02 00:32:58;;;;;;;105.10;31.37;;;;;;;;;;5026143;28;20189;-68
2021/03/02 00:35:23;;;;;;;102.80;30.93;;;;;;;;;;5031142;28;20214;-68
2021/03/02 00:37:49;;;;;;;113.77;34.57;;;;;;;;;;5025672;28;20202;-68
2021/03/02 00:40:16;;;;;;;104.87;32.80;;;;;;;;;;5032336;28;20233;-68
2021/03/02 00:42:41;;;;;;;104.07;32.60;;;;;;;;;;5023931;28;20205;-68
2021/03/02 00:45:07;;;;;;;117.83;32.50;;;;;;;;;;5031283;28;20182;-68
2021/03/02 00:47:33;;;;;;;114.33;33.40;;;;;;;;;;5023966;28;20641;-68
2021/03/02 00:49:58;;;;;;;115.00;33.93;;;;;;;;;;5033181;28;20193;-68
2021/03/02 00:52:23;;;;;;;106.80;31.90;;;;;;;;;;5032207;28;20197;-68
2021/03/02 00:54:49;;;;;;;113.77;35.23;;;;;;;;;;5021986;28;20218;-68
2021/03/02 00:57:14;;;;;;;117.13;32.70;;;;;;;;;;5032276;28;20188;-68
2021/03/02 00:59:39;;;;;;;122.50;34.43;;;;;;;;;;5022803;28;20193;-68
2021/03/02 01:02:05;;;;;;;127.57;35.27;;;;;;;;;;5033051;28;20866;-68
2021/03/02 01:04:30;;;;;;;122.13;35.33;;;;;;;;;;5024401;28;20202;-68
2021/03/02 01:06:55;;;;;;;116.43;33.13;;;;;;;;;;5045188;28;20185;-67
2021/03/02 01:09:21;;;;;;;117.77;33.47;;;;;;;;;;5020754;28;20203;-68
2021/03/02 01:11:47;;;;;;;131.83;36.57;;;;;;;;;;5031447;28;20544;-68
2021/03/02 01:14:13;;;;;;;131.63;35.07;;;;;;;;;;5025543;28;20197;-68
2021/03/02 01:16:39;;;;;;;131.30;35.73;;;;;;;;;;5029124;28;20688;-68
2021/03/02 01:19:04;;;;;;;113.37;33.83;;;;;;;;;;5027968;28;20224;-68
2021/03/02 01:21:29;;;;;;;117.03;34.37;;;;;;;;;;5023416;28;20276;-67
2021/03/02 01:23:55;;;;;;;146.00;37.10;;;;;;;;;;5029436;28;20221;-68
2021/03/02 01:26:20;;;;;;;139.73;35.73;;;;;;;;;;5020688;28;20284;-68
2021/03/02 01:28:45;;;;;;;136.40;36.37;;;;;;;;;;5028640;28;20194;-68
2021/03/02 01:31:11;;;;;;;142.07;35.83;;;;;;;;;;5020807;28;20201;-68
2021/03/02 01:33:36;;;;;;;137.57;37.37;;;;;;;;;;5030164;28;20193;-68
2021/03/02 01:36:01;;;;;;;127.80;36.30;;;;;;;;;;5021290;28;20221;-68
2021/03/02 01:38:27;;;;;;;131.07;36.03;;;;;;;;;;5030730;28;20662;-68
2021/03/02 01:40:53;;;;;;;134.17;35.77;;;;;;;;;;5021918;28;20360;-68
2021/03/02 01:43:18;;;;;;;121.37;34.50;;;;;;;;;;5030543;28;20197;-68
2021/03/02 01:45:44;;;;;;;135.23;38.63;;;;;;;;;;5019435;28;20191;-68
2021/03/02 01:48:09;;;;;;;135.67;35.33;;;;;;;;;;5032611;28;20181;-68
2021/03/02 01:50:35;;;;;;;138.50;35.13;;;;;;;;;;5030334;28;20926;-68
2021/03/02 01:53:00;;;;;;;131.80;36.23;;;;;;;;;;5024477;28;20649;-68
2021/03/02 01:55:26;;;;;;;127.83;37.47;;;;;;;;;;5029123;28;20213;-68
2021/03/02 01:57:51;;;;;;;133.13;36.67;;;;;;;;;;5022622;28;20560;-68
2021/03/02 02:00:29;;;;;;;138.73;36.67;;;;;;;;;;5027975;28;20203;-68
2021/03/02 02:03:19;;;;;;;141.30;35.87;;;;;;;;;;5021790;28;20200;-68
2021/03/02 02:05:48;;;;;;;126.87;34.77;;;;;;;;;;5031199;28;20575;-68
2021/03/02 02:08:16;;;;;;;124.07;32.87;;;;;;;;;;5025660;28;20570;-68
2021/03/02 02:10:55;;;;;;;125.20;33.07;;;;;;;;;;5033291;28;20298;-68
2021/03/02 02:13:31;;;;;;;125.30;33.10;;;;;;;;;;5022983;28;20280;-68
2021/03/02 02:15:58;;;;;;;135.93;34.73;;;;;;;;;;5033488;28;20205;-68
2021/03/02 02:18:29;;;;;;;128.30;32.40;;;;;;;;;;5025236;28;20194;-68
2021/03/02 02:21:05;;;;;;;125.53;35.57;;;;;;;;;;5034079;28;20190;-68
2021/03/02 02:23:59;;;;;;;135.77;36.37;;;;;;;;;;5025596;28;20677;-68
2021/03/02 02:26:46;;;;;;;125.83;34.87;;;;;;;;;;5031296;28;20182;-68
2021/03/02 02:29:15;;;;;;;125.93;32.57;;;;;;;;;;5022763;28;20193;-68
2021/03/02 02:31:43;;;;;;;127.03;33.63;;;;;;;;;;5031332;28;20201;-68
2021/03/02 02:34:12;;;;;;;128.80;35.27;;;;;;;;;;5026042;28;20284;-68
2021/03/02 02:36:39;;;;;;;130.00;34.60;;;;;;;;;;5031287;28;20205;-68
2021/03/02 02:39:06;;;;;;;128.33;36.63;;;;;;;;;;5024679;28;20221;-68
2021/03/02 02:41:31;;;;;;;140.10;36.83;;;;;;;;;;5032525;28;20634;-68
2021/03/02 02:43:57;;;;;;;134.47;38.50;;;;;;;;;;5026636;28;20225;-69
2021/03/02 02:46:24;;;;;;;148.83;36.70;;;;;;;;;;5033680;28;20177;-68
2021/03/02 02:48:50;;;;;;;154.73;38.73;;;;;;;;;;5026064;28;20672;-68
2021/03/02 02:51:17;;;;;;;149.43;38.00;;;;;;;;;;5031342;28;20186;-69
2021/03/02 02:53:42;;;;;;;141.00;38.03;;;;;;;;;;5033611;28;20204;-68
2021/03/02 02:56:11;;;;;;;139.30;36.63;;;;;;;;;;5025148;28;20206;-68
2021/03/02 02:58:41;;;;;;;151.53;38.23;;;;;;;;;;5030813;28;20645;-68
2021/03/02 03:01:08;;;;;;;145.27;36.93;;;;;;;;;;5023584;28;20197;-68
2021/03/02 03:03:36;;;;;;;134.73;36.80;;;;;;;;;;5031464;28;20244;-68
2021/03/02 03:06:10;;;;;;;145.80;37.80;;;;;;;;;;5024558;28;20189;-68
2021/03/02 03:08:35;;;;;;;148.37;38.60;;;;;;;;;;5030787;28;20641;-68
2021/03/02 03:11:03;;;;;;;145.57;38.70;;;;;;;;;;5025130;28;20212;-68
2021/03/02 03:13:39;;;;;;;153.47;40.50;;;;;;;;;;5030229;28;20570;-68
2021/03/02 03:16:07;;;;;;;153.50;38.00;;;;;;;;;;5023543;28;21062;-68
2021/03/02 03:18:41;;;;;;;138.07;37.77;;;;;;;;;;5033157;28;20177;-69
2021/03/02 03:21:07;;;;;;;139.43;37.10;;;;;;;;;;5022646;28;20186;-68
2021/03/02 03:23:33;;;;;;;142.70;37.23;;;;;;;;;;5033554;28;20194;-68
2021/03/02 03:25:59;;;;;;;138.33;37.53;;;;;;;;;;5022139;28;20212;-68
2021/03/02 03:28:25;;;;;;;143.97;37.33;;;;;;;;;;5032107;28;20224;-68
2021/03/02 03:30:52;;;;;;;139.97;36.43;;;;;;;;;;5033255;28;20628;-68
2021/03/02 03:33:19;;;;;;;142.20;37.37;;;;;;;;;;5022033;28;20200;-68
2021/03/02 03:35:45;;;;;;;140.63;36.83;;;;;;;;;;5032764;28;20280;-69
2021/03/02 03:38:11;;;;;;;135.90;36.67;;;;;;;;;;5021457;28;20284;-68
2021/03/02 03:40:37;;;;;;;137.63;35.20;;;;;;;;;;5033149;28;20327;-68
2021/03/02 03:43:02;;;;;;;132.80;36.20;;;;;;;;;;5021432;28;20281;-68
2021/03/02 03:45:28;;;;;;;131.53;36.60;;;;;;;;;;5029743;28;20199;-69
2021/03/02 03:47:55;;;;;;;129.23;36.73;;;;;;;;;;5022771;28;20719;-68
2021/03/02 03:50:20;;;;;;;139.43;37.87;;;;;;;;;;5029378;28;20192;-69
2021/03/02 03:52:49;;;;;;;138.27;36.40;;;;;;;;;;5020507;28;20748;-68
2021/03/02 03:55:18;;;;;;;116.07;35.43;;;;;;;;;;5027979;28;20205;-68
2021/03/02 03:57:45;;;;;;;126.50;36.33;;;;;;;;;;5020703;28;20198;-69
2021/03/02 04:00:12;;;;;;;138.60;35.27;;;;;;;;;;5026994;28;20193;-69
2021/03/02 04:02:38;;;;;;;129.50;33.83;;;;;;;;;;5032190;28;20746;-69
2021/03/02 04:05:05;;;;;;;141.30;37.03;;;;;;;;;;5022685;28;20323;-69
2021/03/02 04:07:32;;;;;;;145.83;37.97;;;;;;;;;;5031083;28;20200;-69
2021/03/02 04:09:58;;;;;;;139.47;37.43;;;;;;;;;;5022585;28;20189;-69
2021/03/02 04:12:23;;;;;;;131.77;35.97;;;;;;;;;;5031818;28;20556;-68
2021/03/02 04:14:48;;;;;;;136.70;36.83;;;;;;;;;;5022185;28;20190;-69
2021/03/02 04:17:14;;;;;;;142.47;36.23;;;;;;;;;;5032000;28;20708;-69
2021/03/02 04:19:39;;;;;;;138.97;34.83;;;;;;;;;;5019763;28;20529;-69
2021/03/02 04:22:05;;;;;;;132.40;36.10;;;;;;;;;;5029905;28;20194;-69
2021/03/02 04:24:30;;;;;;;131.80;36.07;;;;;;;;;;5020450;28;20189;-69
2021/03/02 04:26:56;;;;;;;123.37;35.13;;;;;;;;;;5031079;28;20786;-69
2021/03/02 04:29:22;;;;;;;135.57;37.90;;;;;;;;;;5019660;28;20201;-69
2021/03/02 04:31:47;;;;;;;136.23;37.50;;;;;;;;;;5030887;28;20192;-68
2021/03/02 04:34:12;;;;;;;142.17;36.60;;;;;;;;;;5029848;28;20727;-68
2021/03/02 04:36:38;;;;;;;151.57;37.43;;;;;;;;;;5022736;28;20288;-68
2021/03/02 04:39:03;;;;;;;148.40;36.03;;;;;;;;;;5028909;28;20196;-68
2021/03/02 04:41:29;;;;;;;143.23;34.80;;;;;;;;;;5022126;28;20704;-69
2021/03/02 04:43:54;;;;;;;124.70;35.30;;;;;;;;;;5033752;28;20648;-69
2021/03/02 04:46:20;;;;;;;144.17;36.43;;;;;;;;;;5024475;28;20232;-69
2021/03/02 04:48:47;;;;;;;135.47;37.80;;;;;;;;;;5026748;28;20189;-69
2021/03/02 04:51:13;;;;;;;140.57;36.43;;;;;;;;;;5023368;28;20660;-68
2021/03/02 04:53:38;;;;;;;134.13;34.87;;;;;;;;;;5030825;28;20182;-69
2021/03/02 04:56:04;;;;;;;153.50;37.73;;;;;;;;;;5021724;28;20741;-69
2021/03/02 04:58:29;;;;;;;132.87;36.40;;;;;;;;;;5028852;28;20260;-68
2021/03/02 05:00:54;;;;;;;140.27;36.40;;;;;;;;;;5023512;28;20201;-69
2021/03/02 05:03:20;;;;;;;148.00;38.97;;;;;;;;;;5028612;28;20729;-69
2021/03/02 05:05:45;;;;;;;151.63;37.87;;;;;;;;;;5029030;28;20262;-68
2021/03/02 05:08:10;;;;;;;143.97;38.10;;;;;;;;;;5021021;28;20190;-68
2021/03/02 05:10:36;;;;;;;162.33;38.40;;;;;;;;;;5030365;28;20198;-68
2021/03/02 05:13:01;;;;;;;159.07;38.63;;;;;;;;;;5017293;28;20657;-68
2021/03/02 05:15:26;;;;;;;162.07;41.57;;;;;;;;;;5028015;28;20696;-68
2021/03/02 05:17:52;;;;;;;155.27;40.37;;;;;;;;;;5021132;28;20188;-66
2021/03/02 05:20:17;;;;;;;167.67;41.33;;;;;;;;;;5030141;28;20190;-67
2021/03/02 05:22:43;;;;;;;152.10;40.63;;;;;;;;;;5021250;28;20186;-67
2021/03/02 05:25:08;;;;;;;140.67;39.20;;;;;;;;;;5031156;28;20193;-69
2021/03/02 05:27:34;;;;;;;159.47;40.70;;;;;;;;;;5020179;28;20193;-67
2021/03/02 05:29:59;;;;;;;162.47;41.97;;;;;;;;;;5032705;28;20280;-67
2021/03/02 05:32:25;;;;;;;156.07;40.53;;;;;;;;;;5022623;28;20228;-67
2021/03/02 05:34:50;;;;;;;159.63;40.37;;;;;;;;;;5028038;28;20190;-67
2021/03/02 05:37:15;;;;;;;155.30;38.47;;;;;;;;;;5028633;28;20552;-67
2021/03/02 05:39:41;;;;;;;152.73;41.67;;;;;;;;;;5022160;28;20544;-67
2021/03/02 05:42:07;;;;;;;155.63;38.97;;;;;;;;;;5036102;28;20194;-69
2021/03/02 05:44:33;;;;;;;156.57;42.77;;;;;;;;;;5023420;28;20591;-67
2021/03/02 05:46:59;;;;;;;158.43;41.23;;;;;;;;;;5030902;28;20185;-68
2021/03/02 05:49:25;;;;;;;166.60;41.87;;;;;;;;;;5020812;28;20200;-68
2021/03/02 05:51:50;;;;;;;168.27;42.70;;;;;;;;;;5031262;28;20211;-68
2021/03/02 05:54:17;;;;;;;152.40;40.93;;;;;;;;;;5022967;28;20221;-68
2021/03/02 05:56:43;;;;;;;155.17;40.60;;;;;;;;;;5027318;28;20213;-68
2021/03/02 05:59:09;;;;;;;162.23;41.97;;;;;;;;;;5022086;28;20223;-68
2021/03/02 06:01:35;;;;;;;163.77;42.13;;;;;;;;;;5029631;28;20261;-68
2021/03/02 06:04:01;;;;;;;173.07;43.63;;;;;;;;;;5030494;28;20238;-68
2021/03/02 06:06:26;;;;;;;163.77;44.23;;;;;;;;;;5021952;28;20192;-68
2021/03/02 06:08:52;;;;;;;168.60;42.00;;;;;;;;;;5031155;28;20189;-68
2021/03/02 06:11:29;;;;;;;164.50;42.83;;;;;;;;;;5021711;28;20656;-68
2021/03/02 06:14:24;;;;;;;160.74;41.79;;;;;;;;;;4614178;28;10002913;-68
2021/03/02 06:16:51;;;;;;;154.97;40.70;;;;;;;;;;5017562;28;20487;-68
2021/03/02 06:19:18;;;;;;;164.07;40.07;;;;;;;;;;5029375;28;20244;-68
2021/03/02 06:21:44;;;;;;;155.50;41.20;;;;;;;;;;5023984;28;20267;-68
2021/03/02 06:24:10;;;;;;;153.97;41.90;;;;;;;;;;5028064;28;20624;-68
2021/03/02 06:26:37;;;;;;;156.73;41.03;;;;;;;;;;5018140;28;20190;-68
2021/03/02 06:29:14;;;;;;;149.33;43.13;;;;;;;;;;5037660;28;20217;-68
2021/03/02 06:31:44;;;;;;;147.50;37.57;;;;;;;;;;5019253;28;20202;-67
2021/03/02 06:34:18;;;;;;;150.00;38.23;;;;;;;;;;5029542;28;20650;-67
2021/03/02 06:37:04;;;;;;;155.30;38.57;;;;;;;;;;5019370;28;20344;-67
2021/03/02 06:39:35;;;;;;;140.00;37.53;;;;;;;;;;5026741;28;20246;-67
2021/03/02 06:42:22;;;;;;;151.60;38.97;;;;;;;;;;5021534;28;20328;-67
2021/03/02 06:44:53;;;;;;;148.90;37.87;;;;;;;;;;5031029;28;20285;-67
2021/03/02 06:47:49;;;;;;;156.03;40.73;;;;;;;;;;5023610;28;20206;-67
2021/03/02 06:50:14;;;;;;;140.67;37.33;;;;;;;;;;5031329;28;20629;-67
2021/03/02 06:52:42;;;;;;;130.33;38.23;;;;;;;;;;5020158;28;20205;-68
2021/03/02 06:55:16;;;;;;;152.93;41.53;;;;;;;;;;5032989;28;20353;-67
2021/03/02 06:57:46;;;;;;;154.53;40.20;;;;;;;;;;4670192;28;10000563;-67
2021/03/02 07:00:13;;;;;;;159.63;42.47;;;;;;;;;;5027148;28;20185;-68
2021/03/02 07:02:43;;;;;;;161.17;43.13;;;;;;;;;;5019650;28;20662;-67
2021/03/02 07:05:10;;;;;;;155.73;42.77;;;;;;;;;;5030311;28;20243;-67
2021/03/02 07:07:36;;;;;;;153.13;42.50;;;;;;;;;;5019249;28;20204;-67
2021/03/02 07:10:04;;;;;;;164.03;43.17;;;;;;;;;;5030866;28;20202;-67
2021/03/02 07:12:34;;;;;;;155.60;42.50;;;;;;;;;;5029844;28;20212;-67
2021/03/02 07:15:01;;;;;;;151.20;43.83;;;;;;;;;;5021251;28;20225;-67
2021/03/02 07:17:27;;;;;;;154.07;42.50;;;;;;;;;;5030557;28;20186;-67
2021/03/02 07:19:55;;;;;;;167.37;43.43;;;;;;;;;;5024384;28;20208;-68
2021/03/02 07:22:21;;;;;;;157.13;43.77;;;;;;;;;;5031296;28;20189;-67
2021/03/02 07:24:48;;;;;;;164.30;44.43;;;;;;;;;;5023604;28;20189;-67
2021/03/02 07:27:14;;;;;;;147.77;42.53;;;;;;;;;;5030901;28;20228;-67
2021/03/02 07:29:40;;;;;;;150.57;43.37;;;;;;;;;;5023115;28;20201;-67
2021/03/02 07:32:09;;;;;;;148.13;43.63;;;;;;;;;;5026531;28;20197;-67
2021/03/02 07:34:35;;;;;;;157.47;44.70;;;;;;;;;;5024089;28;20225;-67
2021/03/02 07:37:00;;;;;;;159.73;44.50;;;;;;;;;;5032007;28;20296;-72
2021/03/02 07:39:27;;;;;;;160.37;44.00;;;;;;;;;;5023585;28;20970;-69
2021/03/02 07:41:53;;;;;;;160.33;44.07;;;;;;;;;;5031894;28;20247;-69
2021/03/02 07:44:19;;;;;;;147.13;42.13;;;;;;;;;;5023542;28;20186;-68
2021/03/02 07:46:47;;;;;;;157.03;43.77;;;;;;;;;;5026674;28;20562;-67
2021/03/02 07:49:24;;;;;;;142.47;43.03;;;;;;;;;;5030861;28;20186;-69
2021/03/02 07:52:05;;;;;;;140.13;42.63;;;;;;;;;;5023068;28;20185;-68
2021/03/02 07:54:33;;;;;;;132.60;41.47;;;;;;;;;;5032646;28;20197;-68
2021/03/02 07:57:16;;;;;;;137.73;41.93;;;;;;;;;;5022535;28;20209;-69
2021/03/02 07:59:42;;;;;;;133.10;41.47;;;;;;;;;;5029880;28;20667;-68
2021/03/02 08:02:20;;;;;;;133.50;42.53;;;;;;;;;;5024180;28;20197;-68
2021/03/02 08:04:49;;;;;;;130.23;42.33;;;;;;;;;;5029284;28;20221;-68
2021/03/02 08:07:28;;;;;;;121.40;40.80;;;;;;;;;;5020181;28;20198;-68
2021/03/02 08:09:55;;;;;;;128.23;40.20;;;;;;;;;;5031068;28;20722;-68
2021/03/02 08:12:30;;;;;;;124.90;40.60;;;;;;;;;;5023080;28;20193;-68
2021/03/02 08:14:57;;;;;;;122.00;40.07;;;;;;;;;;5042739;28;20209;-69
2021/03/02 08:17:24;;;;;;;128.13;41.73;;;;;;;;;;5020468;28;20198;-67
2021/03/02 08:20:01;;;;;;;121.60;40.23;;;;;;;;;;5030869;28;20185;-67
2021/03/02 08:22:30;;;;;;;110.50;37.30;;;;;;;;;;5021233;28;20272;-68
2021/03/02 08:24:59;;;;;;;99.00;37.40;;;;;;;;;;5038034;28;20698;-68
2021/03/02 08:28:04;;;;;;;94.47;35.20;;;;;;;;;;5026072;28;20193;-69
2021/03/02 08:30:36;;;;;;;96.77;35.33;;;;;;;;;;5036055;28;20197;-70
2021/03/02 08:33:19;;;;;;;94.50;34.93;;;;;;;;;;5028677;28;20723;-69
2021/03/02 08:35:44;;;;;;;92.37;35.57;;;;;;;;;;5032944;28;20653;-69
2021/03/02 08:38:12;;;;;;;99.90;35.20;;;;;;;;;;5026206;28;20264;-68
2021/03/02 08:40:37;;;;;;;81.50;31.50;;;;;;;;;;5032744;28;20767;-68
2021/03/02 08:43:07;;;;;;;85.23;32.17;;;;;;;;;;5026250;28;20190;-68
2021/03/02 08:45:45;;;;;;;78.93;33.00;;;;;;;;;;5030313;28;20221;-69
2021/03/02 08:48:27;;;;;;;73.23;31.00;;;;;;;;;;5022590;28;20507;-68
2021/03/02 08:51:12;;;;;;;75.77;31.70;;;;;;;;;;5026982;28;20518;-68
2021/03/02 08:53:47;;;;;;;72.80;30.30;;;;;;;;;;5018913;28;20221;-68
2021/03/02 08:56:14;;;;;;;76.93;31.40;;;;;;;;;;5030743;28;20675;-69
2021/03/02 08:58:43;;;;;;;69.17;29.17;;;;;;;;;;5021790;28;20339;-68
2021/03/02 09:01:11;;;;;;;69.37;29.90;;;;;;;;;;5028211;28;20611;-68
2021/03/02 09:03:38;;;;;;;67.00;29.00;;;;;;;;;;5022731;28;20742;-69
2021/03/02 09:06:27;;;;;;;61.73;27.17;;;;;;;;;;5029521;28;20178;-69
2021/03/02 09:08:53;;;;;;;64.53;28.20;;;;;;;;;;5021863;28;20761;-69
2021/03/02 09:11:21;;;;;;;57.40;26.40;;;;;;;;;;5032761;28;20716;-68
2021/03/02 09:13:48;;;;;;;57.17;27.10;;;;;;;;;;5031227;28;20213;-69
2021/03/02 09:16:31;;;;;;;60.03;27.57;;;;;;;;;;5025813;28;20688;-68
2021/03/02 09:19:32;;;;;;;56.60;27.33;;;;;;;;;;5034421;28;20189;-69
2021/03/02 09:22:00;;;;;;;58.20;25.47;;;;;;;;;;5032192;28;20667;-68
2021/03/02 09:24:28;;;;;;;54.47;25.37;;;;;;;;;;5033774;28;20193;-68
2021/03/02 09:27:08;;;;;;;49.87;24.17;;;;;;;;;;5021435;28;20259;-69
2021/03/02 09:29:45;;;;;;;49.07;24.43;;;;;;;;;;5031937;28;20541;-68
2021/03/02 09:32:12;;;;;;;49.57;24.77;;;;;;;;;;5024282;28;20361;-68
2021/03/02 09:34:44;;;;;;;46.17;23.87;;;;;;;;;;5033569;28;20201;-68
2021/03/02 09:37:12;;;;;;;47.67;23.23;;;;;;;;;;5026009;28;20190;-68
2021/03/02 09:39:40;;;;;;;49.67;24.13;;;;;;;;;;5033098;28;20185;-68
2021/03/02 09:42:21;;;;;;;48.57;23.20;;;;;;;;;;5024816;28;20257;-68
2021/03/02 09:44:52;;;;;;;47.20;23.60;;;;;;;;;;5033337;28;20332;-68
2021/03/02 09:47:35;;;;;;;44.70;23.20;;;;;;;;;;5023725;28;20197;-68
2021/03/02 09:50:12;;;;;;;49.07;23.23;;;;;;;;;;5034229;28;20192;-68
2021/03/02 09:52:40;;;;;;;40.17;21.30;;;;;;;;;;5027112;28;22879;-68
2021/03/02 09:55:27;;;;;;;46.83;22.77;;;;;;;;;;5032833;28;20217;-68
2021/03/02 09:58:12;;;;;;;45.37;23.93;;;;;;;;;;5025409;28;20904;-69
2021/03/02 10:00:46;;;;;;;41.00;22.67;;;;;;;;;;5032616;28;20272;-68
2021/03/02 10:03:14;;;;;;;39.70;21.10;;;;;;;;;;5027659;28;20205;-68
2021/03/02 10:05:45;;;;;;;41.97;21.90;;;;;;;;;;5031168;28;20213;-68
2021/03/02 10:08:16;;;;;;;42.87;21.10;;;;;;;;;;5026767;28;20251;-68
2021/03/02 10:10:42;;;;;;;40.47;20.63;;;;;;;;;;5031089;28;20189;-68
2021/03/02 10:13:07;;;;;;;38.20;21.13;;;;;;;;;;5024320;28;20559;-68
2021/03/02 10:15:33;;;;;;;37.47;19.60;;;;;;;;;;5033848;28;20221;-68
2021/03/02 10:18:03;;;;;;;36.57;18.83;;;;;;;;;;5026446;28;20201;-68
2021/03/02 10:20:29;;;;;;;37.70;20.53;;;;;;;;;;5028884;28;20208;-68
2021/03/02 10:23:04;;;;;;;36.37;20.00;;;;;;;;;;5025993;28;20189;-68
2021/03/02 10:25:42;;;;;;;34.90;19.63;;;;;;;;;;5027958;28;20192;-68
2021/03/02 10:28:07;;;;;;;35.03;19.20;;;;;;;;;;5023912;28;20276;-69
2021/03/02 10:30:33;;;;;;;33.50;19.03;;;;;;;;;;5026148;28;20202;-69
2021/03/02 10:32:59;;;;;;;33.05;18.75;;;;;;;;;;5025929;28;20182;-68
2021/03/02 10:35:24;;;;;;;34.53;19.53;;;;;;;;;;5020183;28;20253;-68
2021/03/02 10:37:49;;;;;;;33.70;18.33;;;;;;;;;;5027728;28;20234;-68
2021/03/02 10:40:15;;;;;;;31.67;18.35;;;;;;;;;;5019679;28;20284;-68
2021/03/02 10:42:40;;;;;;;33.10;18.20;;;;;;;;;;5029058;28;20216;-68
2021/03/02 10:45:07;;;;;;;33.85;18.50;;;;;;;;;;5016304;28;20739;-68
2021/03/02 10:47:32;;;;;;;35.60;18.63;;;;;;;;;;5031721;28;20239;-68
2021/03/02 10:49:57;;;;;;;28.58;17.42;;;;;;;;;;5024576;28;20193;-69
2021/03/02 10:52:24;;;;;;;32.92;17.95;;;;;;;;;;5030899;28;22034;-68
2021/03/02 10:54:49;;;;;;;32.10;17.70;;;;;;;;;;5023820;28;23792;-68
2021/03/02 10:57:14;;;;;;;33.42;17.35;;;;;;;;;;5031374;28;20193;-68
2021/03/02 10:59:40;;;;;;;31.13;17.55;;;;;;;;;;5030290;28;20709;-68
2021/03/02 11:02:05;;;;;;;32.30;17.63;;;;;;;;;;5023751;28;20243;-69
2021/03/02 11:04:30;;;;;;;31.83;16.25;;;;;;;;;;5026532;28;20213;-68
2021/03/02 11:06:56;;;;;;;29.17;17.08;;;;;;;;;;5022162;28;20611;-68
2021/03/02 11:09:21;;;;;;;28.60;16.25;;;;;;;;;;5029013;28;20268;-68
2021/03/02 11:11:46;;;;;;;27.13;16.38;;;;;;;;;;5019498;28;20228;-70
2021/03/02 11:14:12;;;;;;;30.65;16.08;;;;;;;;;;5030459;28;20288;-68
2021/03/02 11:16:37;;;;;;;28.00;16.08;;;;;;;;;;5020335;28;20208;-68
2021/03/02 11:19:02;;;;;;;30.25;16.38;;;;;;;;;;5029176;28;20224;-68
2021/03/02 11:21:28;;;;;;;27.10;15.52;;;;;;;;;;5019545;28;20315;-69
2021/03/02 11:23:53;;;;;;;33.03;17.50;;;;;;;;;;5029937;28;20197;-68
2021/03/02 11:26:18;;;;;;;27.48;16.02;;;;;;;;;;5020781;28;20257;-68
2021/03/02 11:28:44;;;;;;;24.05;15.65;;;;;;;;;;5028092;28;20225;-68
2021/03/02 11:31:09;;;;;;;28.65;16.67;;;;;;;;;;5027425;28;20190;-69
2021/03/02 11:33:35;;;;;;;27.52;16.92;;;;;;;;;;5024117;28;20674;-68
2021/03/02 11:36:00;;;;;;;30.48;15.88;;;;;;;;;;5032434;28;20307;-69
2021/03/02 11:38:25;;;;;;;27.73;16.42;;;;;;;;;;5023870;28;20188;-68
2021/03/02 11:40:52;;;;;;;27.67;15.93;;;;;;;;;;5029601;28;20720;-68
2021/03/02 11:43:17;;;;;;;26.10;16.15;;;;;;;;;;5022776;28;21341;-68
2021/03/02 11:45:43;;;;;;;26.55;16.17;;;;;;;;;;5031644;28;20174;-68
2021/03/02 11:48:10;;;;;;;24.25;15.95;;;;;;;;;;5026108;28;20204;-72
2021/03/02 11:50:35;;;;;;;27.35;15.15;;;;;;;;;;5032397;28;20219;-68
2021/03/02 11:53:01;;;;;;;28.10;15.40;;;;;;;;;;5028609;28;20251;-69
2021/03/02 11:55:26;;;;;;;23.02;14.20;;;;;;;;;;5034300;28;20209;-69
2021/03/02 11:57:52;;;;;;;25.33;15.20;;;;;;;;;;5023342;28;20594;-68
2021/03/02 12:00:22;;;;;;;22.70;14.43;;;;;;;;;;5029295;28;20236;-69
2021/03/02 12:02:49;;;;;;;25.25;16.20;;;;;;;;;;5030474;28;20193;-68
2021/03/02 12:05:16;;;;;;;23.80;14.43;;;;;;;;;;5019217;28;20214;-69
2021/03/02 12:07:42;;;;;;;24.45;14.93;;;;;;;;;;5031548;28;20732;-68
2021/03/02 12:10:09;;;;;;;22.30;14.00;;;;;;;;;;5021686;28;20308;-68
2021/03/02 12:12:36;;;;;;;21.70;12.73;;;;;;;;;;5030893;28;20280;-69
2021/03/02 12:15:02;;;;;;;22.20;13.93;;;;;;;;;;5024186;28;20552;-69
2021/03/02 12:17:27;;;;;;;22.15;13.93;;;;;;;;;;5030206;28;20976;-69
2021/03/02 12:19:52;;;;;;;21.67;13.65;;;;;;;;;;5020082;28;20196;-68
2021/03/02 12:22:18;;;;;;;21.25;13.52;;;;;;;;;;5034805;28;20217;-68
2021/03/02 12:24:43;;;;;;;29.80;14.43;;;;;;;;;;5023450;28;20203;-69
2021/03/02 12:27:08;;;;;;;25.02;15.02;;;;;;;;;;5031608;28;20268;-69
2021/03/02 12:29:34;;;;;;;22.80;14.77;;;;;;;;;;5025623;28;20717;-69
2021/03/02 12:31:59;;;;;;;24.05;15.02;;;;;;;;;;5026842;28;20193;-69
2021/03/02 12:34:24;;;;;;;21.58;13.65;;;;;;;;;;5030379;28;20696;-69
2021/03/02 12:36:50;;;;;;;23.90;14.63;;;;;;;;;;5021721;28;20224;-69
2021/03/02 12:39:16;;;;;;;23.10;14.13;;;;;;;;;;5030821;28;20554;-69
2021/03/02 12:41:41;;;;;;;24.67;14.52;;;;;;;;;;5024020;28;20221;-69
2021/03/02 12:44:06;;;;;;;25.23;15.48;;;;;;;;;;5033530;28;20189;-69
2021/03/02 12:46:33;;;;;;;24.02;14.93;;;;;;;;;;5021973;28;20182;-68
2021/03/02 12:48:59;;;;;;;26.08;14.93;;;;;;;;;;5030917;28;20883;-69
2021/03/02 12:51:24;;;;;;;25.02;15.43;;;;;;;;;;5021749;28;20656;-69
2021/03/02 12:53:49;;;;;;;22.63;14.88;;;;;;;;;;5031357;28;20836;-69
2021/03/02 12:56:15;;;;;;;22.42;14.30;;;;;;;;;;5022913;28;20219;-69
2021/03/02 12:58:40;;;;;;;19.88;12.82;;;;;;;;;;5031971;28;20248;-69
2021/03/02 13:01:06;;;;;;;20.95;13.70;;;;;;;;;;5033765;28;20265;-68
2021/03/02 13:03:32;;;;;;;22.70;13.90;;;;;;;;;;5022662;28;20327;-69
2021/03/02 13:06:02;;;;;;;23.70;14.13;;;;;;;;;;5030486;28;20190;-69
2021/03/02 13:08:29;;;;;;;21.73;13.70;;;;;;;;;;5021664;28;20189;-69
2021/03/02 13:10:57;;;;;;;20.13;13.18;;;;;;;;;;5029216;28;20185;-69
2021/03/02 13:13:23;;;;;;;22.00;13.30;;;;;;;;;;5019966;28;20731;-69
2021/03/02 13:15:48;;;;;;;21.67;13.00;;;;;;;;;;5029762;28;20238;-69
2021/03/02 13:18:14;;;;;;;21.13;12.52;;;;;;;;;;5022195;28;20628;-69
2021/03/02 13:20:39;;;;;;;20.75;14.05;;;;;;;;;;5027477;28;20194;-69
2021/03/02 13:23:05;;;;;;;20.73;13.00;;;;;;;;;;5024486;28;20204;-69
2021/03/02 13:25:30;;;;;;;19.65;12.68;;;;;;;;;;5028886;28;20182;-69
2021/03/02 13:27:57;;;;;;;19.52;12.40;;;;;;;;;;5028792;28;20193;-69
2021/03/02 13:30:24;;;;;;;18.85;12.90;;;;;;;;;;5027164;28;20185;-69
2021/03/02 13:33:05;;;;;;;20.45;12.68;;;;;;;;;;5028354;28;20276;-71
2021/03/02 13:35:31;;;;;;;17.30;11.57;;;;;;;;;;5026586;28;20560;-69
2021/03/02 13:38:00;;;;;;;17.13;11.23;;;;;;;;;;5028197;28;20252;-69
2021/03/02 13:40:26;;;;;;;16.40;11.02;;;;;;;;;;5021296;28;20230;-69
2021/03/02 13:42:53;;;;;;;18.98;12.15;;;;;;;;;;5028404;28;20181;-69
2021/03/02 13:45:21;;;;;;;20.30;12.18;;;;;;;;;;4321069;28;10000817;-69
2021/03/02 13:47:47;;;;;;;19.95;11.52;;;;;;;;;;5026106;28;20252;-69
2021/03/02 13:50:15;;;;;;;16.30;10.52;;;;;;;;;;5019537;28;20280;-69
2021/03/02 13:52:40;;;;;;;17.25;10.95;;;;;;;;;;5028113;28;20189;-69
2021/03/02 13:55:07;;;;;;;16.50;10.15;;;;;;;;;;5025060;28;20190;-69
2021/03/02 13:57:35;;;;;;;15.75;10.10;;;;;;;;;;5025360;28;20450;-69
2021/03/02 14:00:01;;;;;;;13.77;9.80;;;;;;;;;;5021865;28;20193;-69
2021/03/02 14:02:27;;;;;;;17.05;11.07;;;;;;;;;;5032918;28;20297;-69
2021/03/02 14:04:57;;;;;;;16.73;10.77;;;;;;;;;;5027157;28;20659;-69
2021/03/02 14:07:24;;;;;;;17.17;10.68;;;;;;;;;;5032452;28;20671;-69
2021/03/02 14:09:50;;;;;;;16.40;11.05;;;;;;;;;;5028772;28;20197;-69
2021/03/02 14:12:17;;;;;;;17.35;10.95;;;;;;;;;;5024171;28;20198;-69
2021/03/02 14:14:43;;;;;;;16.67;10.10;;;;;;;;;;5030854;28;20251;-69